Time;durP1;ratioP1;P1;durP2;ratioP2;P2;SDS_P1;SDS_P2;PMS_P1;PMS_P2;Temp;Humidity;BMP_temperature;BMP_pressure;BME280_temperature;BME280_humidity;BME280_pressure;Samples;Min_cycle;Max_cycle;Signal;HPM_P1;HPM_P2
2023/06/19 00:03:16;;;;;;;17.77;15.13;;;;;;;-145.07;100.00;61000.34;5038448;28;20045;-68
2023/06/19 00:06:41;;;;;;;16.90;14.20;;;;;;;-145.07;100.00;61000.34;5071393;28;20048;-68
2023/06/19 00:10:06;;;;;;;16.55;13.32;;;;;;;-145.07;100.00;61000.34;5049734;28;20628;-69
2023/06/19 00:13:32;;;;;;;16.70;14.35;;;;;;;-145.07;100.00;61000.34;5059992;28;20152;-69
2023/06/19 00:17:00;;;;;;;14.80;12.73;;;;;;;-145.07;100.00;61000.34;5072318;28;20087;-68
2023/06/19 00:20:25;;;;;;;21.52;14.25;;;;;;;-145.07;100.00;61000.34;5054238;28;20049;-68
2023/06/19 00:23:52;;;;;;;17.33;13.77;;;;;;;-145.07;100.00;61000.34;5054942;28;20076;-68
2023/06/19 00:27:18;;;;;;;16.65;13.05;;;;;;;-145.07;100.00;61000.34;5058544;28;20545;-69
2023/06/19 00:30:44;;;;;;;19.92;14.27;;;;;;;-145.07;100.00;61000.34;5060328;28;20043;-69
2023/06/19 00:34:09;;;;;;;17.98;13.98;;;;;;;-145.07;100.00;61000.34;5068122;28;20128;-68
2023/06/19 00:37:35;;;;;;;17.35;14.02;;;;;;;-145.07;100.00;61000.34;5063305;28;20052;-68
2023/06/19 00:41:00;;;;;;;15.52;13.80;;;;;;;-145.07;100.00;61000.34;5055747;28;20153;-69
2023/06/19 00:44:25;;;;;;;15.25;13.43;;;;;;;-145.07;100.00;61000.34;5066040;28;20489;-69
2023/06/19 00:47:54;;;;;;;15.35;13.70;;;;;;;-145.07;100.00;61000.34;5071822;28;20078;-68
2023/06/19 00:51:21;;;;;;;17.20;13.77;;;;;;;-145.07;100.00;61000.34;5082024;28;20044;-68
2023/06/19 00:54:46;;;;;;;14.60;13.10;;;;;;;-145.07;100.00;61000.34;5048847;28;20050;-68
2023/06/19 00:58:11;;;;;;;17.75;14.70;;;;;;;-145.07;100.00;61000.34;5072683;28;20062;-68
2023/06/19 01:01:36;;;;;;;16.83;14.70;;;;;;;-145.07;100.00;61000.34;5072696;28;20140;-68
2023/06/19 01:05:01;;;;;;;20.30;15.48;;;;;;;-145.07;100.00;61000.34;5062401;28;20060;-68
2023/06/19 01:08:46;;;;;;;18.17;14.70;;;;;;;-145.07;100.00;61000.34;5072794;28;20147;-69
2023/06/19 01:12:16;;;;;;;20.20;15.48;;;;;;;-145.07;100.00;61000.34;5067877;28;20136;-69
2023/06/19 01:16:11;;;;;;;18.65;15.10;;;;;;;-145.07;100.00;61000.34;5072066;28;20048;-68
2023/06/19 01:19:37;;;;;;;20.02;14.60;;;;;;;-145.07;100.00;61000.34;5071376;28;20053;-68
2023/06/19 01:23:09;;;;;;;19.63;15.50;;;;;;;-145.07;100.00;61000.34;5066995;28;20059;-68
2023/06/19 01:26:34;;;;;;;17.75;15.05;;;;;;;-145.07;100.00;61000.34;5051744;28;20131;-68
2023/06/19 01:30:01;;;;;;;18.95;15.43;;;;;;;-145.07;100.00;61000.34;5052485;28;20056;-70
2023/06/19 01:33:30;;;;;;;19.77;15.65;;;;;;;-145.07;100.00;61000.34;5070641;28;20051;-69
2023/06/19 01:36:57;;;;;;;20.42;15.90;;;;;;;-145.07;100.00;61000.34;5050619;28;20155;-68
2023/06/19 01:40:25;;;;;;;19.63;15.48;;;;;;;-145.07;100.00;61000.34;5060329;28;20049;-68
2023/06/19 01:43:52;;;;;;;18.52;14.65;;;;;;;-145.07;100.00;61000.34;5064584;28;20059;-68
2023/06/19 01:47:19;;;;;;;17.35;15.02;;;;;;;-145.07;100.00;61000.34;5057675;28;20049;-68
2023/06/19 01:50:47;;;;;;;22.80;16.65;;;;;;;-145.07;100.00;61000.34;5055296;28;20047;-68
2023/06/19 01:54:12;;;;;;;19.45;16.38;;;;;;;-145.07;100.00;61000.34;5067732;28;20055;-69
2023/06/19 01:57:37;;;;;;;22.67;15.68;;;;;;;-145.07;100.00;61000.34;5053172;28;20059;-68
2023/06/19 02:01:04;;;;;;;18.60;16.05;;;;;;;-145.07;100.00;61000.34;5061799;28;20053;-68
2023/06/19 02:04:29;;;;;;;18.67;15.40;;;;;;;-145.07;100.00;61000.34;5033643;28;20071;-68
2023/06/19 02:07:54;;;;;;;15.88;14.20;;;;;;;-145.07;100.00;61000.34;5069936;28;20045;-69
2023/06/19 02:11:19;;;;;;;18.02;15.20;;;;;;;-145.07;100.00;61000.34;5043442;28;20048;-68
2023/06/19 02:14:45;;;;;;;22.00;16.13;;;;;;;-145.07;100.00;61000.34;5074965;28;20083;-68
2023/06/19 02:18:10;;;;;;;18.38;15.13;;;;;;;-145.07;100.00;61000.34;5051980;28;20509;-69
2023/06/19 02:21:35;;;;;;;19.05;16.50;;;;;;;-145.07;100.00;61000.34;5055961;28;20132;-69
2023/06/19 02:25:00;;;;;;;19.05;14.38;;;;;;;-145.07;100.00;61000.34;5068442;28;20044;-69
2023/06/19 02:28:25;;;;;;;17.75;15.70;;;;;;;-145.07;100.00;61000.34;5053242;28;20048;-69
2023/06/19 02:31:52;;;;;;;19.77;15.48;;;;;;;-145.07;100.00;61000.34;5053130;28;20055;-69
2023/06/19 02:35:17;;;;;;;19.80;14.95;;;;;;;-145.07;100.00;61000.34;5064619;28;20048;-69
2023/06/19 02:38:42;;;;;;;18.80;16.38;;;;;;;-145.07;100.00;61000.34;5070826;28;20087;-68
2023/06/19 02:42:07;;;;;;;24.30;17.05;;;;;;;-145.07;100.00;61000.34;5056101;28;20045;-70
2023/06/19 02:45:32;;;;;;;18.30;16.27;;;;;;;-145.07;100.00;61000.34;5056933;28;20471;-69
2023/06/19 02:48:58;;;;;;;20.45;17.05;;;;;;;-145.07;100.00;61000.34;5065816;28;20083;-69
2023/06/19 02:52:23;;;;;;;18.80;16.80;;;;;;;-145.07;100.00;61000.34;5062115;28;20453;-69
2023/06/19 02:55:48;;;;;;;19.15;15.48;;;;;;;-145.07;100.00;61000.34;5065368;28;20067;-69
2023/06/19 02:59:13;;;;;;;18.33;16.13;;;;;;;-145.07;100.00;61000.34;5063649;28;20055;-69
2023/06/19 03:02:41;;;;;;;22.10;17.10;;;;;;;-145.07;100.00;61000.34;5056608;28;20053;-69
2023/06/19 03:06:08;;;;;;;19.20;15.73;;;;;;;-145.07;100.00;61000.34;5065518;28;20110;-69
2023/06/19 03:09:33;;;;;;;21.88;17.52;;;;;;;-145.07;100.00;61000.34;5074361;28;20400;-69
2023/06/19 03:12:58;;;;;;;18.30;15.45;;;;;;;-145.07;100.00;61000.34;5057938;28;20100;-69
2023/06/19 03:16:24;;;;;;;21.23;16.35;;;;;;;-145.07;100.00;61000.34;5055296;28;20049;-69
2023/06/19 03:19:49;;;;;;;17.50;15.63;;;;;;;-145.07;100.00;61000.34;5054865;28;20120;-69
2023/06/19 03:23:14;;;;;;;18.05;15.77;;;;;;;-145.07;100.00;61000.34;5056438;28;20045;-69
2023/06/19 03:26:39;;;;;;;21.08;16.17;;;;;;;-145.07;100.00;61000.34;5054577;28;20045;-69
2023/06/19 03:30:08;;;;;;;18.33;15.88;;;;;;;-145.07;100.00;61000.34;5054552;28;20080;-69
2023/06/19 03:33:33;;;;;;;19.55;16.63;;;;;;;-145.07;100.00;61000.34;5074120;28;20071;-69
2023/06/19 03:36:58;;;;;;;21.23;17.75;;;;;;;-145.07;100.00;61000.34;5062205;28;20127;-69
2023/06/19 03:40:23;;;;;;;17.83;15.15;;;;;;;-145.07;100.00;61000.34;5054813;28;20049;-69
2023/06/19 03:43:48;;;;;;;18.20;15.45;;;;;;;-145.07;100.00;61000.34;5054026;28;20059;-69
2023/06/19 03:47:13;;;;;;;20.17;17.30;;;;;;;-145.07;100.00;61000.34;5073561;28;20059;-69
2023/06/19 03:50:38;;;;;;;20.50;15.75;;;;;;;-145.07;100.00;61000.34;5072594;28;20055;-70
2023/06/19 03:54:03;;;;;;;19.83;16.67;;;;;;;-145.07;100.00;61000.34;5073868;28;20353;-69
2023/06/19 03:57:29;;;;;;;18.50;16.50;;;;;;;-145.07;100.00;61000.34;5055774;28;20054;-69
2023/06/19 04:00:54;;;;;;;18.20;15.88;;;;;;;-145.07;100.00;61000.34;5063978;28;20365;-69
2023/06/19 04:04:19;;;;;;;18.75;15.07;;;;;;;-145.07;100.00;61000.34;5070012;28;20376;-69
2023/06/19 04:07:44;;;;;;;20.02;16.50;;;;;;;-145.07;100.00;61000.34;5069724;28;20052;-69
2023/06/19 04:11:09;;;;;;;20.92;16.75;;;;;;;-145.07;100.00;61000.34;5066613;28;20051;-69
2023/06/19 04:14:34;;;;;;;21.02;17.25;;;;;;;-145.07;100.00;61000.34;5053691;28;20080;-69
2023/06/19 04:18:03;;;;;;;19.08;16.55;;;;;;;-145.07;100.00;61000.34;5050317;28;20083;-69
2023/06/19 04:21:28;;;;;;;18.25;16.08;;;;;;;-145.07;100.00;61000.34;5085532;28;20062;-69
2023/06/19 04:24:53;;;;;;;20.05;16.98;;;;;;;-145.07;100.00;61000.34;5088881;28;20052;-69
2023/06/19 04:28:18;;;;;;;21.70;16.42;;;;;;;-145.07;100.00;61000.34;5083439;28;20117;-69
2023/06/19 04:31:46;;;;;;;20.13;16.42;;;;;;;-145.07;100.00;61000.34;5072906;28;20049;-69
2023/06/19 04:35:14;;;;;;;19.23;16.90;;;;;;;-145.07;100.00;61000.34;5053874;28;20083;-69
2023/06/19 04:38:39;;;;;;;20.67;17.85;;;;;;;-145.07;100.00;61000.34;5052958;28;20052;-69
2023/06/19 04:42:04;;;;;;;18.33;16.42;;;;;;;-145.07;100.00;61000.34;5057098;28;20108;-69
2023/06/19 04:45:29;;;;;;;19.13;15.55;;;;;;;-145.07;100.00;61000.34;5056784;28;20425;-69
2023/06/19 04:48:55;;;;;;;18.10;16.20;;;;;;;-145.07;100.00;61000.34;5053556;28;20056;-69
2023/06/19 04:52:20;;;;;;;19.73;16.30;;;;;;;-145.07;100.00;61000.34;5057004;28;20048;-69
2023/06/19 04:55:45;;;;;;;17.25;15.55;;;;;;;-145.07;100.00;61000.34;5055963;28;20391;-69
2023/06/19 04:59:10;;;;;;;22.05;17.20;;;;;;;-145.07;100.00;61000.34;5052492;28;20416;-70
2023/06/19 05:02:35;;;;;;;20.85;16.75;;;;;;;-145.07;100.00;61000.34;5052438;28;20142;-69
2023/06/19 05:06:01;;;;;;;22.63;16.58;;;;;;;-145.07;100.00;61000.34;5051545;28;20134;-69
2023/06/19 05:09:26;;;;;;;19.02;16.45;;;;;;;-145.07;100.00;61000.34;5064208;28;20072;-69
2023/06/19 05:12:51;;;;;;;23.83;16.30;;;;;;;-145.07;100.00;61000.34;5049875;28;20048;-69
2023/06/19 05:16:16;;;;;;;18.90;16.40;;;;;;;-145.07;100.00;61000.34;5060368;28;20048;-69
2023/06/19 05:19:41;;;;;;;22.88;16.48;;;;;;;-145.07;100.00;61000.34;5072045;28;20048;-69
2023/06/19 05:23:06;;;;;;;20.25;15.52;;;;;;;-145.07;100.00;61000.34;5069048;28;20046;-69
2023/06/19 05:26:31;;;;;;;23.30;16.63;;;;;;;-145.07;100.00;61000.34;5071296;28;20198;-69
2023/06/19 05:29:56;;;;;;;22.33;16.17;;;;;;;-145.07;100.00;61000.34;5071922;28;20163;-69
2023/06/19 05:33:23;;;;;;;20.85;16.73;;;;;;;-145.07;100.00;61000.34;5072231;28;20151;-69
2023/06/19 05:36:48;;;;;;;25.08;16.85;;;;;;;-145.07;100.00;61000.34;5053956;28;20520;-69
2023/06/19 05:40:14;;;;;;;20.77;16.15;;;;;;;-145.07;100.00;61000.34;5053173;28;20131;-69
2023/06/19 05:43:39;;;;;;;20.02;15.23;;;;;;;-145.07;100.00;61000.34;5050761;28;20113;-69
2023/06/19 05:47:04;;;;;;;24.70;15.25;;;;;;;-145.07;100.00;61000.34;5060691;28;20057;-69
2023/06/19 05:50:30;;;;;;;22.67;16.55;;;;;;;-145.07;100.00;61000.34;5054476;28;20051;-69
2023/06/19 05:54:00;;;;;;;22.98;16.98;;;;;;;-145.07;100.00;61000.34;5071476;28;20409;-69
2023/06/19 05:57:25;;;;;;;22.85;16.08;;;;;;;-145.07;100.00;61000.34;5071339;28;20449;-69
2023/06/19 06:00:57;;;;;;;16.77;14.23;;;;;;;-145.07;100.00;61000.34;5071434;28;20059;-69
2023/06/19 06:04:25;;;;;;;19.48;14.93;;;;;;;-145.07;100.00;61000.34;5071374;28;20048;-69
2023/06/19 06:07:50;;;;;;;20.77;15.00;;;;;;;-145.07;100.00;61000.34;5053602;28;20438;-69
2023/06/19 06:11:15;;;;;;;17.30;14.65;;;;;;;-145.07;100.00;61000.34;5052101;28;20060;-69
2023/06/19 06:14:41;;;;;;;17.83;15.45;;;;;;;-145.07;100.00;61000.34;5051660;28;20136;-70
2023/06/19 06:18:06;;;;;;;18.13;15.00;;;;;;;-145.07;100.00;61000.34;5051517;28;20053;-69
2023/06/19 06:21:32;;;;;;;19.08;15.73;;;;;;;-145.07;100.00;61000.34;5053115;28;20045;-69
2023/06/19 06:24:57;;;;;;;17.98;14.23;;;;;;;-145.07;100.00;61000.34;5053790;28;20044;-69
2023/06/19 06:28:22;;;;;;;21.67;15.10;;;;;;;-145.07;100.00;61000.34;5058007;28;20044;-69
2023/06/19 06:31:47;;;;;;;18.50;14.52;;;;;;;-145.07;100.00;61000.34;5075187;28;20052;-70
2023/06/19 06:35:12;;;;;;;17.30;14.65;;;;;;;-145.07;100.00;61000.34;5067966;28;20045;-70
2023/06/19 06:38:37;;;;;;;18.40;15.95;;;;;;;-145.07;100.00;61000.34;5054877;28;20079;-70
2023/06/19 06:42:03;;;;;;;16.55;14.00;;;;;;;-145.07;100.00;61000.34;5054999;28;20215;-70
2023/06/19 06:45:28;;;;;;;17.98;15.15;;;;;;;-145.07;100.00;61000.34;5058600;28;20040;-69
2023/06/19 06:48:53;;;;;;;18.92;15.32;;;;;;;-145.07;100.00;61000.34;5068999;28;20063;-69
2023/06/19 06:52:18;;;;;;;23.50;14.85;;;;;;;-145.07;100.00;61000.34;5074955;28;20044;-70
2023/06/19 06:55:43;;;;;;;16.60;14.88;;;;;;;-145.07;100.00;61000.34;5054622;28;20139;-69
2023/06/19 06:59:08;;;;;;;21.45;15.55;;;;;;;-145.07;100.00;61000.34;5037062;28;20044;-69
2023/06/19 07:02:33;;;;;;;16.05;14.35;;;;;;;-145.07;100.00;61000.34;5054615;28;20132;-69
2023/06/19 07:05:58;;;;;;;19.63;13.95;;;;;;;-145.07;100.00;61000.34;5054075;28;20045;-69
2023/06/19 07:09:23;;;;;;;16.30;13.50;;;;;;;-145.07;100.00;61000.34;5073287;28;20131;-69
2023/06/19 07:12:48;;;;;;;15.93;13.93;;;;;;;-145.07;100.00;61000.34;5074148;28;20056;-69
2023/06/19 07:16:14;;;;;;;17.90;14.82;;;;;;;-145.07;100.00;61000.34;5072607;28;20056;-69
2023/06/19 07:19:39;;;;;;;17.45;14.57;;;;;;;-145.07;100.00;61000.34;5053944;28;20708;-69
2023/06/19 07:23:04;;;;;;;16.25;14.25;;;;;;;-145.07;100.00;61000.34;5063933;28;20144;-68
2023/06/19 07:26:29;;;;;;;15.63;13.93;;;;;;;-145.07;100.00;61000.34;5074128;28;20465;-68
2023/06/19 07:29:54;;;;;;;19.25;13.43;;;;;;;-145.07;100.00;61000.34;5071097;28;20091;-68
2023/06/19 07:33:19;;;;;;;15.13;13.43;;;;;;;-145.07;100.00;61000.34;5056357;28;20053;-68
2023/06/19 07:36:44;;;;;;;16.88;13.50;;;;;;;-145.07;100.00;61000.34;5072771;28;20064;-68
2023/06/19 07:40:10;;;;;;;17.08;14.38;;;;;;;-145.07;100.00;61000.34;5056919;28;20140;-68
2023/06/19 07:43:35;;;;;;;20.33;14.50;;;;;;;-145.07;100.00;61000.34;5053656;28;20059;-68
2023/06/19 07:47:00;;;;;;;17.17;14.25;;;;;;;-145.07;100.00;61000.34;5053408;28;20394;-68
2023/06/19 07:50:26;;;;;;;18.90;13.38;;;;;;;-145.07;100.00;61000.34;5072416;28;20067;-69
2023/06/19 07:53:53;;;;;;;25.48;13.95;;;;;;;-145.07;100.00;61000.34;5072549;28;20048;-69
2023/06/19 07:57:18;;;;;;;16.20;14.50;;;;;;;-145.07;100.00;61000.34;5071266;28;20050;-69
2023/06/19 08:00:44;;;;;;;21.25;13.75;;;;;;;-145.07;100.00;61000.34;5073138;28;20049;-69
2023/06/19 08:04:09;;;;;;;29.05;14.30;;;;;;;-145.07;100.00;61000.34;5073464;28;20059;-69
2023/06/19 08:07:35;;;;;;;17.98;14.02;;;;;;;-145.07;100.00;61000.34;5068631;28;20103;-67
2023/06/19 08:11:01;;;;;;;16.33;13.27;;;;;;;-145.07;100.00;61000.34;5073114;28;20539;-69
2023/06/19 08:14:26;;;;;;;16.70;13.10;;;;;;;-145.07;100.00;61000.34;5053526;28;20076;-69
2023/06/19 08:17:51;;;;;;;23.15;14.65;;;;;;;-145.07;100.00;61000.34;5051658;28;20045;-69
2023/06/19 08:21:16;;;;;;;16.80;13.98;;;;;;;-145.07;100.00;61000.34;5051734;28;20071;-69
2023/06/19 08:24:41;;;;;;;16.23;14.48;;;;;;;-145.07;100.00;61000.34;5053611;28;20099;-69
2023/06/19 08:28:07;;;;;;;16.63;14.63;;;;;;;-145.07;100.00;61000.34;5072755;28;20044;-67
2023/06/19 08:31:33;;;;;;;15.82;14.23;;;;;;;-145.07;100.00;61000.34;5073061;28;20106;-69
2023/06/19 08:34:59;;;;;;;16.73;13.77;;;;;;;-145.07;100.00;61000.34;5068034;28;20055;-69
2023/06/19 08:38:23;;;;;;;18.65;14.48;;;;;;;-145.07;100.00;61000.34;5065521;28;20485;-69
2023/06/19 08:41:49;;;;;;;19.30;15.45;;;;;;;-145.07;100.00;61000.34;5056055;28;20056;-68
2023/06/19 08:45:14;;;;;;;17.23;15.23;;;;;;;-145.07;100.00;61000.34;5079407;28;20465;-69
2023/06/19 08:48:39;;;;;;;17.40;14.23;;;;;;;-145.07;100.00;61000.34;5072494;28;20103;-69
2023/06/19 08:52:04;;;;;;;22.73;14.43;;;;;;;-145.07;100.00;61000.34;5052535;28;20076;-69
2023/06/19 08:55:29;;;;;;;15.63;13.90;;;;;;;-145.07;100.00;61000.34;5070392;28;20163;-69
2023/06/19 08:58:54;;;;;;;17.02;15.23;;;;;;;-145.07;100.00;61000.34;5054677;28;20147;-69
2023/06/19 09:02:20;;;;;;;18.20;16.33;;;;;;;-145.07;100.00;61000.34;5054489;28;20127;-70
2023/06/19 09:05:49;;;;;;;31.60;15.77;;;;;;;-145.07;100.00;61000.34;5071622;28;20064;-70
2023/06/19 09:09:20;;;;;;;19.90;16.90;;;;;;;-145.07;100.00;61000.34;5054668;28;20052;-70
2023/06/19 09:12:57;;;;;;;29.97;18.20;;;;;;;-145.07;100.00;61000.34;5071878;28;20468;-69
2023/06/19 09:16:24;;;;;;;18.33;16.38;;;;;;;-145.07;100.00;61000.34;5071517;28;20289;-69
2023/06/19 09:19:51;;;;;;;20.00;17.52;;;;;;;-145.07;100.00;61000.34;5077601;28;20125;-70
2023/06/19 09:23:17;;;;;;;18.42;16.55;;;;;;;-145.07;100.00;61000.34;5074261;28;20063;-69
2023/06/19 09:26:43;;;;;;;20.73;16.10;;;;;;;-145.07;100.00;61000.34;5091505;28;20512;-70
2023/06/19 09:30:15;;;;;;;21.58;16.75;;;;;;;-145.07;100.00;61000.34;5073531;28;20052;-69
2023/06/19 09:33:43;;;;;;;18.92;16.70;;;;;;;-145.07;100.00;61000.34;5092109;28;20079;-70
2023/06/19 09:37:09;;;;;;;26.23;18.60;;;;;;;-145.07;100.00;61000.34;5092000;28;20056;-68
2023/06/19 09:40:37;;;;;;;21.95;18.05;;;;;;;-145.07;100.00;61000.34;5091722;28;20426;-68
2023/06/19 09:44:12;;;;;;;20.40;18.25;;;;;;;-145.07;100.00;61000.34;5091898;28;20357;-70
2023/06/19 09:47:43;;;;;;;18.38;16.30;;;;;;;-145.07;100.00;61000.34;5091863;28;20163;-69
2023/06/19 09:51:21;;;;;;;20.02;17.35;;;;;;;-145.07;100.00;61000.34;5092045;28;20454;-68
2023/06/19 09:54:47;;;;;;;19.95;17.73;;;;;;;-145.07;100.00;61000.34;5074038;28;20052;-69
2023/06/19 09:58:12;;;;;;;19.70;17.67;;;;;;;-145.07;100.00;61000.34;5092859;28;20075;-69
2023/06/19 10:01:37;;;;;;;19.52;16.88;;;;;;;-145.07;100.00;61000.34;5096306;28;20582;-69
2023/06/19 10:05:04;;;;;;;19.73;17.67;;;;;;;-145.07;100.00;61000.34;5096450;28;20150;-69
2023/06/19 10:08:40;;;;;;;21.35;17.73;;;;;;;-145.07;100.00;61000.34;5067482;28;20052;-67
2023/06/19 10:12:12;;;;;;;19.40;17.35;;;;;;;-145.07;100.00;61000.34;5075656;28;20457;-68
2023/06/19 10:15:44;;;;;;;20.75;15.23;;;;;;;-145.07;100.00;61000.34;5075427;28;20058;-68
2023/06/19 10:19:14;;;;;;;20.80;16.80;;;;;;;-145.07;100.00;61000.34;5056407;28;20154;-68
2023/06/19 10:22:51;;;;;;;18.23;15.40;;;;;;;-145.07;100.00;61000.34;5066300;28;20056;-68
2023/06/19 10:26:21;;;;;;;17.55;15.27;;;;;;;-145.07;100.00;61000.34;5074910;28;20128;-67
2023/06/19 10:29:51;;;;;;;21.40;16.95;;;;;;;-145.07;100.00;61000.34;5075478;28;20048;-67
2023/06/19 10:33:26;;;;;;;18.20;14.20;;;;;;;-145.07;100.00;61000.34;5075462;28;20132;-69
2023/06/19 10:36:54;;;;;;;16.13;14.52;;;;;;;-145.07;100.00;61000.34;5075041;28;20046;-67
2023/06/19 10:40:20;;;;;;;18.58;16.35;;;;;;;-145.07;100.00;61000.34;5075114;28;20147;-68
2023/06/19 10:43:57;;;;;;;18.45;15.00;;;;;;;-145.07;100.00;61000.34;5075356;28;20056;-69
2023/06/19 10:47:23;;;;;;;16.88;15.07;;;;;;;-145.07;100.00;61000.34;5056735;28;20087;-68
2023/06/19 10:50:48;;;;;;;15.57;13.98;;;;;;;-145.07;100.00;61000.34;5075059;28;20079;-69
2023/06/19 10:54:25;;;;;;;18.17;14.85;;;;;;;-145.07;100.00;61000.34;5074536;28;20131;-68
2023/06/19 10:57:50;;;;;;;20.08;15.40;;;;;;;-145.07;100.00;61000.34;5056758;28;20052;-69
2023/06/19 11:01:22;;;;;;;16.45;14.70;;;;;;;-145.07;100.00;61000.34;5074338;28;20091;-69
2023/06/19 11:04:48;;;;;;;23.13;15.68;;;;;;;-145.07;100.00;61000.34;5074572;28;20433;-71
2023/06/19 11:08:20;;;;;;;15.48;13.88;;;;;;;-145.07;100.00;61000.34;5056468;28;20372;-71
2023/06/19 11:11:47;;;;;;;17.70;14.00;;;;;;;-145.07;100.00;61000.34;5073021;28;20127;-70
2023/06/19 11:15:13;;;;;;;16.42;13.50;;;;;;;-145.07;100.00;61000.34;5044709;28;20049;-68
2023/06/19 11:18:38;;;;;;;19.15;13.70;;;;;;;-145.07;100.00;61000.34;5058220;28;20079;-68
2023/06/19 11:22:04;;;;;;;14.82;12.80;;;;;;;-145.07;100.00;61000.34;5059849;28;20493;-68
2023/06/19 11:25:39;;;;;;;15.15;13.65;;;;;;;-145.07;100.00;61000.34;5059283;28;20113;-69
2023/06/19 11:29:18;;;;;;;14.52;13.02;;;;;;;-145.07;100.00;61000.34;5036767;28;20049;-69
2023/06/19 11:32:45;;;;;;;13.23;11.93;;;;;;;-145.07;100.00;61000.34;5053979;28;20056;-69
2023/06/19 11:36:11;;;;;;;13.27;11.98;;;;;;;-145.07;100.00;61000.34;5053279;28;20470;-69
2023/06/19 11:39:36;;;;;;;14.65;12.50;;;;;;;-145.07;100.00;61000.34;5053688;28;20045;-69
2023/06/19 11:43:02;;;;;;;14.02;11.80;;;;;;;-145.07;100.00;61000.34;5053738;28;20148;-69
2023/06/19 11:46:30;;;;;;;14.32;12.65;;;;;;;-145.07;100.00;61000.34;5052333;28;20131;-70
2023/06/19 11:50:08;;;;;;;13.50;11.02;;;;;;;-145.07;100.00;61000.34;5056508;28;20476;-69
2023/06/19 11:53:33;;;;;;;13.75;12.40;;;;;;;-145.07;100.00;61000.34;5059000;28;20378;-69
2023/06/19 11:56:58;;;;;;;11.93;10.73;;;;;;;-145.07;100.00;61000.34;5052946;28;20140;-70
2023/06/19 12:00:24;;;;;;;11.32;10.23;;;;;;;-145.07;100.00;61000.34;5065269;28;20060;-70
2023/06/19 12:03:49;;;;;;;11.23;10.13;;;;;;;-145.07;100.00;61000.34;5073891;28;20159;-69
2023/06/19 12:07:17;;;;;;;12.38;10.60;;;;;;;-145.07;100.00;61000.34;5073127;28;20326;-68
2023/06/19 12:10:43;;;;;;;9.63;8.63;;;;;;;-145.07;100.00;61000.34;5070714;28;20080;-70
2023/06/19 12:14:08;;;;;;;10.70;9.57;;;;;;;-145.07;100.00;61000.34;5053213;28;20071;-68
2023/06/19 12:17:33;;;;;;;9.93;8.93;;;;;;;-145.07;100.00;61000.34;5052442;28;20358;-69
2023/06/19 12:20:58;;;;;;;10.95;9.20;;;;;;;-145.07;100.00;61000.34;5053419;28;20185;-61
2023/06/19 12:24:23;;;;;;;9.32;8.00;;;;;;;-145.07;100.00;61000.34;5053685;28;20055;-62
2023/06/19 12:27:50;;;;;;;9.55;8.30;;;;;;;-145.07;100.00;61000.34;5073145;28;20059;-61
2023/06/19 12:31:19;;;;;;;13.30;8.63;;;;;;;-145.07;100.00;61000.34;5073570;28;20103;-61
2023/06/19 12:34:46;;;;;;;9.98;8.90;;;;;;;-145.07;100.00;61000.34;5073180;28;20095;-61
2023/06/19 12:38:14;;;;;;;13.57;9.20;;;;;;;-145.07;100.00;61000.34;5073291;28;20048;-61
2023/06/19 12:41:39;;;;;;;10.88;9.77;;;;;;;-145.07;100.00;61000.34;5072588;28;20114;-61
2023/06/19 12:45:05;;;;;;;11.48;10.35;;;;;;;-145.07;100.00;61000.34;5072949;28;20135;-61
2023/06/19 12:48:31;;;;;;;11.88;10.02;;;;;;;-145.07;100.00;61000.34;5072793;28;20048;-61
2023/06/19 12:51:56;;;;;;;11.50;9.88;;;;;;;-145.07;100.00;61000.34;5072418;28;20085;-61
2023/06/19 12:55:21;;;;;;;12.10;9.35;;;;;;;-145.07;100.00;61000.34;5071951;28;20495;-61
2023/06/19 12:58:47;;;;;;;12.80;10.27;;;;;;;-145.07;100.00;61000.34;5072349;28;20049;-61
2023/06/19 13:02:12;;;;;;;13.52;11.10;;;;;;;-145.07;100.00;61000.34;5072123;28;20365;-61
2023/06/19 13:05:39;;;;;;;11.90;10.63;;;;;;;-145.07;100.00;61000.34;5072055;28;20155;-61
2023/06/19 13:09:05;;;;;;;14.13;11.00;;;;;;;-145.07;100.00;61000.34;5072119;28;20135;-61
2023/06/19 13:12:30;;;;;;;14.27;10.40;;;;;;;-145.07;100.00;61000.34;5071879;28;20102;-61
2023/06/19 13:15:55;;;;;;;12.75;11.45;;;;;;;-145.07;100.00;61000.34;5071511;28;20101;-60
2023/06/19 13:19:20;;;;;;;11.73;10.50;;;;;;;-145.07;100.00;61000.34;5071992;28;20099;-61
2023/06/19 13:22:46;;;;;;;13.98;10.68;;;;;;;-145.07;100.00;61000.34;5072105;28;20063;-60
2023/06/19 13:26:11;;;;;;;13.25;11.85;;;;;;;-145.07;100.00;61000.34;5071569;28;20460;-62
2023/06/19 13:29:36;;;;;;;12.30;11.13;;;;;;;-145.07;100.00;61000.34;5071823;28;20080;-62
2023/06/19 13:33:02;;;;;;;16.63;11.57;;;;;;;-145.07;100.00;61000.34;5071800;28;20124;-61
2023/06/19 13:36:29;;;;;;;12.65;11.35;;;;;;;-145.07;100.00;61000.34;5071687;28;20063;-62
2023/06/19 13:39:55;;;;;;;13.38;10.18;;;;;;;-145.07;100.00;61000.34;5072132;28;20048;-62
2023/06/19 13:43:23;;;;;;;15.38;10.20;;;;;;;-145.07;100.00;61000.34;5071441;28;20088;-62
2023/06/19 13:46:49;;;;;;;11.02;9.93;;;;;;;-145.07;100.00;61000.34;5051448;28;20051;-62
2023/06/19 13:50:18;;;;;;;10.90;9.80;;;;;;;-145.07;100.00;61000.34;5060184;28;20060;-61
2023/06/19 13:53:45;;;;;;;11.52;10.32;;;;;;;-145.07;100.00;61000.34;5071974;28;20369;-61
2023/06/19 13:57:10;;;;;;;11.18;9.45;;;;;;;-145.07;100.00;61000.34;5071807;28;20048;-61
2023/06/19 14:00:36;;;;;;;11.60;10.18;;;;;;;-145.07;100.00;61000.34;5058171;28;20095;-61
2023/06/19 14:04:01;;;;;;;13.32;9.95;;;;;;;-145.07;100.00;61000.34;5051576;28;20549;-61
2023/06/19 14:07:26;;;;;;;12.90;10.25;;;;;;;-145.07;100.00;61000.34;5053516;28;20049;-61
2023/06/19 14:10:51;;;;;;;13.95;10.88;;;;;;;-145.07;100.00;61000.34;5071441;28;20536;-61
2023/06/19 14:14:17;;;;;;;12.95;9.68;;;;;;;-145.07;100.00;61000.34;5071746;28;20468;-61
2023/06/19 14:17:42;;;;;;;10.90;9.20;;;;;;;-145.07;100.00;61000.34;5072127;28;20059;-61
2023/06/19 14:21:09;;;;;;;12.38;9.60;;;;;;;-145.07;100.00;61000.34;5071955;28;20048;-62
2023/06/19 14:24:34;;;;;;;12.38;9.10;;;;;;;-145.07;100.00;61000.34;5072083;28;20082;-61
2023/06/19 14:27:59;;;;;;;11.85;9.50;;;;;;;-145.07;100.00;61000.34;5071915;28;20045;-61
2023/06/19 14:31:24;;;;;;;10.38;9.32;;;;;;;-145.07;100.00;61000.34;5071838;28;20048;-62
2023/06/19 14:34:49;;;;;;;11.63;9.52;;;;;;;-145.07;100.00;61000.34;5071811;28;20053;-61
2023/06/19 14:38:14;;;;;;;11.77;8.52;;;;;;;-145.07;100.00;61000.34;5071487;28;20591;-61
2023/06/19 14:41:40;;;;;;;9.77;8.38;;;;;;;-145.07;100.00;61000.34;5071338;28;20064;-62
2023/06/19 14:45:05;;;;;;;10.10;8.75;;;;;;;-145.07;100.00;61000.34;5072336;28;20048;-62
2023/06/19 14:48:30;;;;;;;11.13;8.40;;;;;;;-145.07;100.00;61000.34;5075188;28;20464;-62
2023/06/19 14:51:56;;;;;;;11.85;8.30;;;;;;;-145.07;100.00;61000.34;5075093;28;20049;-62
2023/06/19 14:55:21;;;;;;;9.25;8.25;;;;;;;-145.07;100.00;61000.34;5074737;28;20056;-62
2023/06/19 14:58:46;;;;;;;9.23;8.32;;;;;;;-145.07;100.00;61000.34;5075448;28;20040;-62
2023/06/19 15:02:11;;;;;;;12.73;8.32;;;;;;;-145.07;100.00;61000.34;5074932;28;20088;-61
2023/06/19 15:05:37;;;;;;;8.75;7.85;;;;;;;-145.07;100.00;61000.34;5074566;28;20044;-61
2023/06/19 15:09:02;;;;;;;10.75;7.90;;;;;;;-145.07;100.00;61000.34;5074645;28;20494;-62
2023/06/19 15:12:32;;;;;;;13.80;8.35;;;;;;;-145.07;100.00;61000.34;5067665;28;20052;-61
2023/06/19 15:15:58;;;;;;;9.73;7.97;;;;;;;-145.07;100.00;61000.34;5054337;28;20053;-62
2023/06/19 15:19:24;;;;;;;9.80;8.80;;;;;;;-145.07;100.00;61000.34;5054797;28;20132;-62